Ashton, Iowa
Current Conditions -  °F | °C
As of 2:35 PM on Tuesday 25 Nov 2014 (Local Time) from KSHL Reporting Station
Clear Clear  
Wind Chill: 27°   Ceiling: Unl
Heat Index: 36°   Visibility: 10mi
Dew Point: 18°   Wind: 13mph
Humidity: 48%   Direction: 170°S
Pressure: 29.93"   Gusts: NA
Location:  43.31°N, 95.79°W
Report Text: KSHL 252035Z AUTO 17011KT 10SM CLR 02/M08 A2993 RMK AO2
Loading
Personal Weather Stations






























Interactive Weather Map New forecast layout! Learn more

10-Day Weather Forecast

Advertisements
Track Severe Weather on mobile